Time;durP1;ratioP1;P1;durP2;ratioP2;P2;SDS_P1;SDS_P2;PMS_P1;PMS_P2;Temp;Humidity;BMP_temperature;BMP_pressure;BME280_temperature;BME280_humidity;BME280_pressure;Samples;Min_cycle;Max_cycle;Signal;HPM_P1;HPM_P2
2022/04/08 00:00:53;;;;;;;;;;;;;;;16.75;62.09;98050.03;2083792;28;20035;-54
2022/04/08 00:01:55;;;;;;;;;;;;;;;16.76;62.13;98048.19;2081677;28;20529;-48
2022/04/08 00:02:57;;;;;;;;;;;;;;;16.79;61.97;98052.34;2082595;28;19920;-50
2022/04/08 00:03:58;;;;;;;;;;;;;;;16.80;62.14;98048.63;2089107;28;19921;-47
2022/04/08 00:04:59;;;;;;;;;;;;;;;16.79;61.98;98045.13;2082824;28;19995;-56
2022/04/08 00:06:02;;;;;;;;;;;;;;;16.79;62.10;98039.75;2077144;28;19994;-45
2022/04/08 00:07:02;;;;;;;;;;;;;;;16.79;62.09;98042.44;2076634;28;19928;-51
2022/04/08 00:08:04;;;;;;;;;;;;;;;16.78;62.15;98039.97;2081098;28;19931;-56
2022/04/08 00:09:04;;;;;;;;;;;;;;;16.77;62.11;98043.66;2073896;28;19925;-50
2022/04/08 00:10:07;;;;;;;;;;;;;;;16.75;62.10;98039.31;2083581;28;19925;-47
2022/04/08 00:11:08;;;;;;;;;;;;;;;16.76;62.08;98037.47;2081443;28;19936;-54
2022/04/08 00:12:10;;;;;;;;;;;;;;;16.74;62.21;98035.00;2079255;28;20816;-55
2022/04/08 00:13:11;;;;;;;;;;;;;;;16.72;62.19;98031.72;2082357;28;20017;-53
2022/04/08 00:14:13;;;;;;;;;;;;;;;16.71;62.15;98037.25;2084230;28;19935;-53
2022/04/08 00:15:13;;;;;;;;;;;;;;;16.71;62.16;98032.72;2081259;28;19927;-56
2022/04/08 00:16:15;;;;;;;;;;;;;;;16.71;62.23;98034.56;2085841;28;19925;-50
2022/04/08 00:17:15;;;;;;;;;;;;;;;16.70;62.24;98032.94;2083160;28;19924;-48
2022/04/08 00:18:19;;;;;;;;;;;;;;;16.69;62.21;98029.44;2088231;28;20365;-52
2022/04/08 00:19:20;;;;;;;;;;;;;;;16.68;62.19;98033.13;2089165;28;19925;-52
2022/04/08 00:20:22;;;;;;;;;;;;;;;16.68;62.31;98027.78;2089054;28;20461;-53
2022/04/08 00:21:25;;;;;;;;;;;;;;;16.67;62.28;98028.81;2088218;28;20007;-54
2022/04/08 00:22:27;;;;;;;;;;;;;;;16.67;62.29;98025.31;2087692;28;19920;-53
2022/04/08 00:23:28;;;;;;;;;;;;;;;16.66;62.28;98024.50;2085654;28;20582;-52
2022/04/08 00:24:29;;;;;;;;;;;;;;;16.66;62.22;98021.81;2089047;28;19920;-53
2022/04/08 00:25:30;;;;;;;;;;;;;;;16.66;62.21;98020.97;2090508;28;19924;-52
2022/04/08 00:26:32;;;;;;;;;;;;;;;16.65;62.27;98025.50;2086802;28;20012;-51
2022/04/08 00:27:33;;;;;;;;;;;;;;;16.65;62.27;98019.34;2087597;28;19986;-55
2022/04/08 00:28:34;;;;;;;;;;;;;;;16.63;62.29;98014.22;2087886;28;19928;-49
2022/04/08 00:29:35;;;;;;;;;;;;;;;16.65;62.16;98009.44;2085560;28;19921;-53
2022/04/08 00:30:36;;;;;;;;;;;;;;;16.63;62.27;98006.19;2089147;28;19928;-48
2022/04/08 00:31:37;;;;;;;;;;;;;;;16.64;62.19;98007.81;2087617;28;19928;-50
2022/04/08 00:32:38;;;;;;;;;;;;;;;16.63;62.18;98008.00;2082953;28;19986;-46
2022/04/08 00:33:40;;;;;;;;;;;;;;;16.64;62.16;98002.47;2082757;28;19929;-52
2022/04/08 00:34:42;;;;;;;;;;;;;;;16.63;62.11;97999.97;2090760;28;19921;-54
2022/04/08 00:35:42;;;;;;;;;;;;;;;16.64;62.22;98001.63;2090351;28;19920;-50
2022/04/08 00:36:44;;;;;;;;;;;;;;;16.62;62.19;97999.16;2089970;28;20133;-51
2022/04/08 00:37:44;;;;;;;;;;;;;;;16.61;62.28;97997.50;2086556;28;19965;-49
2022/04/08 00:38:46;;;;;;;;;;;;;;;16.61;62.11;97991.34;2087886;28;19920;-49
2022/04/08 00:39:46;;;;;;;;;;;;;;;16.60;62.23;97998.53;2087749;28;19928;-51
2022/04/08 00:40:48;;;;;;;;;;;;;;;16.59;62.31;97988.03;2087078;28;19956;-50
2022/04/08 00:41:49;;;;;;;;;;;;;;;16.59;62.25;97988.84;2086692;28;19921;-52
2022/04/08 00:42:50;;;;;;;;;;;;;;;16.58;62.24;97989.91;2087712;28;19924;-46
2022/04/08 00:43:51;;;;;;;;;;;;;;;16.58;62.33;97989.09;2085931;28;19935;-55
2022/04/08 00:44:52;;;;;;;;;;;;;;;16.59;62.40;97988.03;2084475;28;19927;-54
2022/04/08 00:45:53;;;;;;;;;;;;;;;16.59;62.21;97993.41;2087761;28;19924;-47
2022/04/08 00:46:54;;;;;;;;;;;;;;;16.56;62.32;97988.47;2089528;28;19920;-46
2022/04/08 00:47:55;;;;;;;;;;;;;;;16.56;62.43;97988.47;2088193;28;19928;-47
2022/04/08 00:48:58;;;;;;;;;;;;;;;16.56;62.26;97989.28;2085966;28;20030;-46
2022/04/08 00:49:58;;;;;;;;;;;;;;;16.57;62.26;97990.91;2086186;28;19981;-47
2022/04/08 00:51:01;;;;;;;;;;;;;;;16.55;62.30;97990.31;2083089;28;19993;-45
2022/04/08 00:52:01;;;;;;;;;;;;;;;16.54;62.28;97980.63;2087874;28;19928;-47
2022/04/08 00:53:03;;;;;;;;;;;;;;;16.54;62.42;97992.13;2087667;28;19924;-50
2022/04/08 00:54:04;;;;;;;;;;;;;;;16.54;62.29;97988.66;2088820;28;19928;-47
2022/04/08 00:55:06;;;;;;;;;;;;;;;16.55;62.25;97990.31;2092076;28;19925;-46
2022/04/08 00:56:07;;;;;;;;;;;;;;;16.56;62.35;97996.50;2093476;28;19928;-46
2022/04/08 00:57:08;;;;;;;;;;;;;;;16.53;62.30;97995.03;2090796;28;20478;-46
2022/04/08 00:58:09;;;;;;;;;;;;;;;16.53;62.29;97993.19;2092715;28;20382;-48
2022/04/08 00:59:10;;;;;;;;;;;;;;;16.51;62.39;97992.56;2088485;28;19928;-46
2022/04/08 01:00:11;;;;;;;;;;;;;;;16.52;62.27;97999.56;2089913;28;19920;-46
2022/04/08 01:01:13;;;;;;;;;;;;;;;16.52;62.35;97994.22;2092617;28;19925;-46
2022/04/08 01:02:15;;;;;;;;;;;;;;;16.52;62.38;98001.44;2093220;28;19920;-45
2022/04/08 01:03:16;;;;;;;;;;;;;;;16.51;62.44;98008.63;2086284;28;19924;-46
2022/04/08 01:04:21;;;;;;;;;;;;;;;16.50;62.34;97995.47;2090050;28;19921;-47
2022/04/08 01:05:22;;;;;;;;;;;;;;;16.49;62.29;97988.44;2093617;28;20282;-47
2022/04/08 01:06:25;;;;;;;;;;;;;;;16.49;62.44;97994.63;2085461;28;19927;-48
2022/04/08 01:07:26;;;;;;;;;;;;;;;16.48;62.29;97997.50;2088431;28;19921;-49
2022/04/08 01:08:27;;;;;;;;;;;;;;;16.48;62.38;97994.81;2085519;28;19925;-47
2022/04/08 01:09:29;;;;;;;;;;;;;;;16.49;62.43;97996.47;2087040;28;19924;-47
2022/04/08 01:10:29;;;;;;;;;;;;;;;16.49;62.27;97991.13;2090502;28;20019;-47
2022/04/08 01:11:31;;;;;;;;;;;;;;;16.46;62.38;97992.34;2088882;28;19951;-46
2022/04/08 01:12:32;;;;;;;;;;;;;;;16.47;62.29;97996.69;2086442;28;20037;-50
2022/04/08 01:13:34;;;;;;;;;;;;;;;16.47;62.34;97993.19;2087343;28;19921;-47
2022/04/08 01:14:37;;;;;;;;;;;;;;;16.46;62.26;97988.84;2085665;28;19959;-47
2022/04/08 01:15:39;;;;;;;;;;;;;;;16.45;62.40;97987.22;2088268;28;20433;-46
2022/04/08 01:16:40;;;;;;;;;;;;;;;16.45;62.30;97996.06;2087274;28;19929;-46
2022/04/08 01:17:41;;;;;;;;;;;;;;;16.48;62.34;97997.50;2086156;28;19920;-47
2022/04/08 01:18:42;;;;;;;;;;;;;;;16.49;62.24;97999.13;2090653;28;19951;-47
2022/04/08 01:19:45;;;;;;;;;;;;;;;16.47;62.38;97994.00;2083985;28;20421;-48
2022/04/08 01:20:46;;;;;;;;;;;;;;;16.46;62.29;97991.53;2084166;28;19944;-47
2022/04/08 01:21:48;;;;;;;;;;;;;;;16.45;62.30;97987.22;2084191;28;19928;-46
2022/04/08 01:22:48;;;;;;;;;;;;;;;16.46;62.20;97991.53;2088143;28;19927;-47
2022/04/08 01:23:51;;;;;;;;;;;;;;;16.46;62.25;97986.16;2087187;28;19925;-54
2022/04/08 01:24:57;;;;;;;;;;;;;;;16.45;62.30;97987.22;2089430;28;19928;-50
2022/04/08 01:25:59;;;;;;;;;;;;;;;16.45;62.28;97987.22;2085760;28;19990;-47
2022/04/08 01:26:59;;;;;;;;;;;;;;;16.43;62.40;97994.63;2085187;28;19925;-52
2022/04/08 01:28:01;;;;;;;;;;;;;;;16.43;62.42;97991.94;2084184;28;19927;-48
2022/04/08 01:29:02;;;;;;;;;;;;;;;16.43;62.37;97989.25;2085812;28;20416;-51
2022/04/08 01:30:04;;;;;;;;;;;;;;;16.43;62.27;97986.59;2087223;28;19986;-49
2022/04/08 01:31:06;;;;;;;;;;;;;;;16.42;62.30;97987.63;2088843;28;20022;-46
2022/04/08 01:32:07;;;;;;;;;;;;;;;16.41;62.32;97980.59;2088572;28;19982;-48
2022/04/08 01:33:09;;;;;;;;;;;;;;;16.41;62.40;97981.44;2087798;28;20323;-52
2022/04/08 01:34:09;;;;;;;;;;;;;;;16.42;62.37;97979.59;2085061;28;20282;-52
2022/04/08 01:35:11;;;;;;;;;;;;;;;16.42;62.34;97971.56;2084299;28;19986;-54
2022/04/08 01:36:11;;;;;;;;;;;;;;;16.41;62.30;97969.91;2084692;28;20003;-46
2022/04/08 01:37:13;;;;;;;;;;;;;;;16.41;62.40;97973.44;2087327;28;19933;-55
2022/04/08 01:38:13;;;;;;;;;;;;;;;16.41;62.31;97962.72;2089695;28;19933;-46
2022/04/08 01:39:15;;;;;;;;;;;;;;;16.41;62.32;97964.53;2084874;28;20070;-52
2022/04/08 01:40:17;;;;;;;;;;;;;;;16.39;62.30;97971.97;2084917;28;19925;-52
2022/04/08 01:41:20;;;;;;;;;;;;;;;16.40;62.28;97966.41;2084808;28;19935;-51
2022/04/08 01:42:24;;;;;;;;;;;;;;;16.41;62.22;97975.25;2088684;28;19924;-51
2022/04/08 01:43:26;;;;;;;;;;;;;;;16.41;62.30;97964.53;2087271;28;19921;-55
2022/04/08 01:44:26;;;;;;;;;;;;;;;16.39;62.29;97970.13;2083665;28;19928;-54
2022/04/08 01:45:28;;;;;;;;;;;;;;;16.40;62.29;97971.75;2086996;28;19921;-52
2022/04/08 01:46:28;;;;;;;;;;;;;;;16.41;62.18;97970.75;2086527;28;19920;-53
2022/04/08 01:47:30;;;;;;;;;;;;;;;16.40;62.27;97973.63;2086332;28;20477;-54
2022/04/08 01:48:30;;;;;;;;;;;;;;;16.38;62.24;97967.63;2080889;28;20589;-54
2022/04/08 01:49:32;;;;;;;;;;;;;;;16.38;62.22;97968.47;2081452;28;19920;-50
2022/04/08 01:50:32;;;;;;;;;;;;;;;16.39;62.26;97967.44;2085583;28;19925;-56
2022/04/08 01:51:34;;;;;;;;;;;;;;;16.37;62.26;97969.50;2087058;28;20047;-48
2022/04/08 01:52:34;;;;;;;;;;;;;;;16.38;62.47;97975.66;2084107;28;20548;-53
2022/04/08 01:53:36;;;;;;;;;;;;;;;16.38;62.44;97970.31;2083611;28;19921;-55
2022/04/08 01:54:37;;;;;;;;;;;;;;;16.38;62.20;97973.84;2084091;28;19974;-53
2022/04/08 01:55:39;;;;;;;;;;;;;;;16.38;62.31;97967.63;2088331;28;19928;-52
2022/04/08 01:56:40;;;;;;;;;;;;;;;16.39;62.22;97963.94;2086852;28;20027;-53
2022/04/08 01:57:42;;;;;;;;;;;;;;;16.38;62.30;97979.19;2092182;28;19920;-53
2022/04/08 01:58:42;;;;;;;;;;;;;;;16.36;62.30;97961.69;2089634;28;19920;-54
2022/04/08 01:59:44;;;;;;;;;;;;;;;16.37;62.28;97971.34;2087524;28;19924;-50
2022/04/08 02:00:44;;;;;;;;;;;;;;;16.37;62.25;97966.00;2090982;28;19968;-46
2022/04/08 02:01:46;;;;;;;;;;;;;;;16.37;62.24;97969.50;2090108;28;19925;-50
2022/04/08 02:02:47;;;;;;;;;;;;;;;16.37;62.32;97971.34;2084184;28;19928;-48
2022/04/08 02:03:48;;;;;;;;;;;;;;;16.36;62.22;97967.03;2085502;28;19925;-53
2022/04/08 02:04:49;;;;;;;;;;;;;;;16.36;62.18;97965.19;2082667;28;19928;-51
2022/04/08 02:05:50;;;;;;;;;;;;;;;16.35;62.24;97971.53;2087246;28;20013;-51
2022/04/08 02:06:51;;;;;;;;;;;;;;;16.37;62.21;97971.34;2085143;28;20413;-52
2022/04/08 02:07:53;;;;;;;;;;;;;;;16.37;62.25;97966.00;2088514;28;19950;-55
2022/04/08 02:08:54;;;;;;;;;;;;;;;16.35;62.22;97965.38;2090143;28;19927;-56
2022/04/08 02:09:55;;;;;;;;;;;;;;;16.36;62.25;97969.72;2085810;28;19924;-48
2022/04/08 02:10:58;;;;;;;;;;;;;;;16.35;62.21;97963.50;2082797;28;20420;-52
2022/04/08 02:11:58;;;;;;;;;;;;;;;16.35;62.25;97952.81;2085304;28;19928;-49
2022/04/08 02:13:00;;;;;;;;;;;;;;;16.36;62.26;97965.19;2084227;28;19924;-56
2022/04/08 02:14:00;;;;;;;;;;;;;;;16.35;62.15;97968.03;2087246;28;19925;-49
2022/04/08 02:15:02;;;;;;;;;;;;;;;16.35;62.17;97965.38;2088471;28;19924;-46
2022/04/08 02:16:03;;;;;;;;;;;;;;;16.35;62.33;97962.69;2084277;28;20041;-52
2022/04/08 02:17:05;;;;;;;;;;;;;;;16.31;62.33;97960.44;2083545;28;19936;-50
2022/04/08 02:18:06;;;;;;;;;;;;;;;16.31;62.26;97960.44;2083048;28;19966;-54
2022/04/08 02:19:07;;;;;;;;;;;;;;;16.33;62.22;97954.88;2084862;28;19921;-51
2022/04/08 02:20:08;;;;;;;;;;;;;;;16.34;62.20;97961.06;2085705;28;20910;-50
2022/04/08 02:21:10;;;;;;;;;;;;;;;16.33;62.18;97962.09;2088375;28;19978;-53
2022/04/08 02:22:11;;;;;;;;;;;;;;;16.32;62.26;97955.91;2084207;28;19929;-50
2022/04/08 02:23:13;;;;;;;;;;;;;;;16.31;62.32;97962.28;2086852;28;19931;-49
2022/04/08 02:24:13;;;;;;;;;;;;;;;16.32;62.27;97966.59;2087977;28;19932;-48
2022/04/08 02:25:15;;;;;;;;;;;;;;;16.30;62.27;97953.44;2088831;28;19928;-49
2022/04/08 02:26:17;;;;;;;;;;;;;;;16.31;62.24;97959.63;2085341;28;19969;-54
2022/04/08 02:27:19;;;;;;;;;;;;;;;16.31;62.23;97949.72;2087917;28;19931;-49
2022/04/08 02:28:19;;;;;;;;;;;;;;;16.31;62.18;97955.09;2089736;28;19935;-50
2022/04/08 02:29:21;;;;;;;;;;;;;;;16.30;62.21;97957.97;2083867;28;19928;-49
2022/04/08 02:30:22;;;;;;;;;;;;;;;16.30;62.17;97948.09;2086023;28;19956;-53
2022/04/08 02:31:23;;;;;;;;;;;;;;;16.32;62.03;97966.59;2090604;28;19926;-44
2022/04/08 02:32:24;;;;;;;;;;;;;;;16.29;62.26;97962.47;2084058;28;19935;-51
2022/04/08 02:33:25;;;;;;;;;;;;;;;16.30;62.18;97963.34;2077418;28;19929;-54
2022/04/08 02:34:26;;;;;;;;;;;;;;;16.30;62.21;97964.16;2089127;28;19920;-48
2022/04/08 02:35:27;;;;;;;;;;;;;;;16.28;62.21;97960.84;2085859;28;20547;-52
2022/04/08 02:36:28;;;;;;;;;;;;;;;16.28;62.13;97955.50;2085331;28;19920;-51
2022/04/08 02:37:29;;;;;;;;;;;;;;;16.30;62.21;97961.47;2081728;28;20280;-46
2022/04/08 02:38:30;;;;;;;;;;;;;;;16.29;62.19;97951.78;2082999;28;19963;-46
2022/04/08 02:39:31;;;;;;;;;;;;;;;16.28;62.21;97955.50;2088119;28;20279;-50
2022/04/08 02:40:32;;;;;;;;;;;;;;;16.27;62.28;97945.81;2087667;28;19991;-46
2022/04/08 02:41:35;;;;;;;;;;;;;;;16.26;62.18;97943.34;2089297;28;19951;-48
2022/04/08 02:42:35;;;;;;;;;;;;;;;16.28;62.12;97949.31;2085960;28;19946;-47
2022/04/08 02:43:37;;;;;;;;;;;;;;;16.26;62.28;97949.50;2089358;28;19990;-46
2022/04/08 02:44:37;;;;;;;;;;;;;;;16.26;62.16;97949.50;2085111;28;20024;-47
2022/04/08 02:45:39;;;;;;;;;;;;;;;16.26;62.31;97946.84;2083533;28;20443;-48
2022/04/08 02:46:40;;;;;;;;;;;;;;;16.26;62.31;97954.88;2086970;28;19935;-47
2022/04/08 02:47:41;;;;;;;;;;;;;;;16.27;62.21;97950.38;2084430;28;19952;-47
2022/04/08 02:48:42;;;;;;;;;;;;;;;16.24;62.21;97943.56;2081974;28;19928;-48
2022/04/08 02:49:44;;;;;;;;;;;;;;;16.26;62.26;97956.72;2083809;28;19928;-48
2022/04/08 02:50:46;;;;;;;;;;;;;;;16.25;62.23;97958.59;2087680;28;19936;-47
2022/04/08 02:51:47;;;;;;;;;;;;;;;16.26;62.18;97954.06;2087642;28;20374;-47
2022/04/08 02:52:48;;;;;;;;;;;;;;;16.24;62.22;97946.25;2088722;28;19921;-49
2022/04/08 02:53:49;;;;;;;;;;;;;;;16.25;62.21;97947.06;2083967;28;20011;-48
2022/04/08 02:54:50;;;;;;;;;;;;;;;16.25;62.24;97950.56;2086855;28;19928;-49
2022/04/08 02:55:51;;;;;;;;;;;;;;;16.24;62.18;97946.25;2081753;28;19920;-51
2022/04/08 02:56:54;;;;;;;;;;;;;;;16.25;62.21;97944.38;2085914;28;19932;-49
2022/04/08 02:57:54;;;;;;;;;;;;;;;16.24;62.16;97940.88;2083273;28;19928;-46
2022/04/08 02:58:57;;;;;;;;;;;;;;;16.24;62.22;97948.06;2083472;28;20013;-52
2022/04/08 02:59:58;;;;;;;;;;;;;;;16.23;62.21;97944.56;2082821;28;20339;-50
2022/04/08 03:01:00;;;;;;;;;;;;;;;16.23;62.20;97936.56;2086996;28;19925;-46
2022/04/08 03:02:00;;;;;;;;;;;;;;;16.24;62.24;97942.72;2086640;28;20285;-48
2022/04/08 03:03:02;;;;;;;;;;;;;;;16.22;62.18;97945.63;2091342;28;19936;-50
2022/04/08 03:04:05;;;;;;;;;;;;;;;16.21;62.22;97943.94;2084938;28;19928;-48
2022/04/08 03:05:07;;;;;;;;;;;;;;;16.22;62.18;97944.78;2085971;28;19921;-47
2022/04/08 03:06:09;;;;;;;;;;;;;;;16.22;62.19;97945.63;2084089;28;20433;-49
2022/04/08 03:07:10;;;;;;;;;;;;;;;16.26;62.09;97956.72;2085999;28;19928;-53
2022/04/08 03:08:11;;;;;;;;;;;;;;;16.26;62.11;97951.38;2087625;28;19971;-48
2022/04/08 03:09:12;;;;;;;;;;;;;;;16.27;62.01;97959.22;2088126;28;19940;-51
2022/04/08 03:10:14;;;;;;;;;;;;;;;16.27;62.09;97953.84;2082887;28;20739;-48
2022/04/08 03:11:16;;;;;;;;;;;;;;;16.28;62.02;97960.03;2089456;28;20496;-48
2022/04/08 03:12:18;;;;;;;;;;;;;;;16.28;61.99;97955.50;2083716;28;19921;-51
2022/04/08 03:13:19;;;;;;;;;;;;;;;16.29;62.00;97957.13;2087739;28;20055;-51
2022/04/08 03:14:20;;;;;;;;;;;;;;;16.31;61.84;97956.94;2084785;28;20721;-47
2022/04/08 03:15:21;;;;;;;;;;;;;;;16.31;61.84;97954.25;2088086;28;19931;-49
2022/04/08 03:16:22;;;;;;;;;;;;;;;16.32;61.96;97955.91;2084495;28;19927;-47
2022/04/08 03:17:24;;;;;;;;;;;;;;;16.31;61.91;97952.41;2083229;28;20915;-51
2022/04/08 03:18:24;;;;;;;;;;;;;;;16.33;61.95;97948.72;2085175;28;19920;-51
2022/04/08 03:19:26;;;;;;;;;;;;;;;16.33;61.94;97956.75;2085064;28;19952;-48
2022/04/08 03:20:26;;;;;;;;;;;;;;;16.34;61.81;97953.03;2083863;28;19992;-52
2022/04/08 03:21:30;;;;;;;;;;;;;;;16.34;61.87;97953.03;2084938;28;19930;-49
2022/04/08 03:22:31;;;;;;;;;;;;;;;16.36;61.88;97950.97;2086109;28;19939;-48
2022/04/08 03:23:32;;;;;;;;;;;;;;;16.34;61.88;97953.03;2086935;28;19990;-47
2022/04/08 03:24:33;;;;;;;;;;;;;;;16.34;61.82;97948.50;2085236;28;19935;-44
2022/04/08 03:25:34;;;;;;;;;;;;;;;16.35;61.79;97960.84;2085832;28;19920;-47
2022/04/08 03:26:35;;;;;;;;;;;;;;;16.35;61.78;97950.13;2085457;28;20003;-47
2022/04/08 03:27:38;;;;;;;;;;;;;;;16.35;61.85;97954.66;2090331;28;19932;-48
2022/04/08 03:28:38;;;;;;;;;;;;;;;16.35;61.83;97954.66;2087671;28;20292;-47
2022/04/08 03:29:40;;;;;;;;;;;;;;;16.34;61.84;97950.34;2086212;28;19924;-47
2022/04/08 03:30:40;;;;;;;;;;;;;;;16.35;61.79;97952.00;2086324;28;20371;-47
2022/04/08 03:31:42;;;;;;;;;;;;;;;16.34;61.77;97951.19;2088748;28;19924;-47
2022/04/08 03:32:43;;;;;;;;;;;;;;;16.33;61.73;97946.88;2082130;28;19929;-47
2022/04/08 03:33:44;;;;;;;;;;;;;;;16.34;61.81;97947.69;2086279;28;19927;-49
2022/04/08 03:34:45;;;;;;;;;;;;;;;16.33;61.96;97940.69;2084344;28;20622;-47
2022/04/08 03:35:46;;;;;;;;;;;;;;;16.33;61.79;97952.22;2085570;28;19924;-48
2022/04/08 03:36:48;;;;;;;;;;;;;;;16.34;61.81;97947.69;2079291;28;19928;-48
2022/04/08 03:37:49;;;;;;;;;;;;;;;16.34;61.80;97950.34;2081351;28;19929;-47
2022/04/08 03:38:50;;;;;;;;;;;;;;;16.33;61.81;97946.03;2084463;28;19920;-48
2022/04/08 03:39:51;;;;;;;;;;;;;;;16.33;61.90;97951.41;2088751;28;20260;-47
2022/04/08 03:40:52;;;;;;;;;;;;;;;16.33;61.80;97951.41;2086917;28;19931;-51
2022/04/08 03:41:53;;;;;;;;;;;;;;;16.35;61.75;97946.63;2086500;28;19965;-49
2022/04/08 03:42:56;;;;;;;;;;;;;;;16.33;61.73;97941.50;2087357;28;19924;-50
2022/04/08 03:43:57;;;;;;;;;;;;;;;16.33;61.77;97951.41;2089394;28;19927;-50
2022/04/08 03:44:58;;;;;;;;;;;;;;;16.31;61.75;97939.03;2084937;28;20058;-47
2022/04/08 03:45:58;;;;;;;;;;;;;;;16.34;61.84;97936.97;2082694;28;20048;-49
2022/04/08 03:47:00;;;;;;;;;;;;;;;16.31;61.87;97944.38;2085738;28;19924;-49
2022/04/08 03:48:00;;;;;;;;;;;;;;;16.32;61.80;97939.84;2080750;28;19925;-47
2022/04/08 03:49:02;;;;;;;;;;;;;;;16.31;61.87;97944.38;2083288;28;20010;-48
2022/04/08 03:50:03;;;;;;;;;;;;;;;16.31;61.87;97930.19;2083698;28;19928;-46
2022/04/08 03:51:04;;;;;;;;;;;;;;;16.31;61.74;97939.03;2084759;28;19924;-47
2022/04/08 03:52:08;;;;;;;;;;;;;;;16.31;61.73;97928.31;2085306;28;19931;-47
2022/04/08 03:53:12;;;;;;;;;;;;;;;16.30;61.80;97947.28;2090072;28;19964;-47
2022/04/08 03:54:13;;;;;;;;;;;;;;;16.31;61.84;97946.25;2087538;28;19928;-48
2022/04/08 03:55:16;;;;;;;;;;;;;;;16.30;61.79;97940.06;2087793;28;19924;-48
2022/04/08 03:56:17;;;;;;;;;;;;;;;16.31;61.78;97941.69;2091328;28;20033;-48
2022/04/08 03:57:19;;;;;;;;;;;;;;;16.31;61.76;97940.88;2086534;28;20015;-47
2022/04/08 03:58:21;;;;;;;;;;;;;;;16.30;61.73;97944.59;2083179;28;20062;-49
2022/04/08 03:59:24;;;;;;;;;;;;;;;16.31;61.72;97944.38;2082992;28;19921;-51
2022/04/08 04:00:25;;;;;;;;;;;;;;;16.30;61.79;97942.75;2086970;28;19969;-48
2022/04/08 04:01:26;;;;;;;;;;;;;;;16.31;61.79;97949.72;2084178;28;20440;-48
2022/04/08 04:02:27;;;;;;;;;;;;;;;16.30;61.80;97945.41;2084503;28;20532;-49
2022/04/08 04:03:28;;;;;;;;;;;;;;;16.31;61.87;97948.91;2080456;28;19921;-50
2022/04/08 04:04:29;;;;;;;;;;;;;;;16.30;61.79;97945.41;2085867;28;19928;-47
2022/04/08 04:05:30;;;;;;;;;;;;;;;16.30;61.84;97942.75;2087463;28;19924;-49
2022/04/08 04:06:31;;;;;;;;;;;;;;;16.30;61.81;97944.59;2087459;28;19936;-50
2022/04/08 04:07:33;;;;;;;;;;;;;;;16.31;61.72;97944.38;2085378;28;19931;-52
2022/04/08 04:08:34;;;;;;;;;;;;;;;16.32;61.70;97942.53;2084324;28;20726;-48
2022/04/08 04:09:35;;;;;;;;;;;;;;;16.34;61.74;97943.16;2082780;28;19920;-47
2022/04/08 04:10:37;;;;;;;;;;;;;;;16.36;61.70;97937.59;2087385;28;19939;-47
2022/04/08 04:11:37;;;;;;;;;;;;;;;16.39;61.64;97938.00;2084231;28;19932;-49
2022/04/08 04:12:39;;;;;;;;;;;;;;;16.44;61.49;97942.75;2087486;28;19924;-48
2022/04/08 04:13:41;;;;;;;;;;;;;;;16.47;61.51;97945.00;2086123;28;19927;-48
2022/04/08 04:14:43;;;;;;;;;;;;;;;16.53;61.40;97941.50;2086446;28;20002;-48
2022/04/08 04:15:43;;;;;;;;;;;;;;;16.56;61.41;97941.09;2084168;28;19932;-51
2022/04/08 04:16:45;;;;;;;;;;;;;;;16.58;61.36;97941.72;2085120;28;19935;-49
2022/04/08 04:17:46;;;;;;;;;;;;;;;16.63;61.50;97941.91;2085712;28;20500;-53
2022/04/08 04:18:47;;;;;;;;;;;;;;;16.66;61.41;97946.84;2084054;28;19929;-50
2022/04/08 04:19:48;;;;;;;;;;;;;;;16.69;61.39;97946.44;2080517;28;19925;-51
2022/04/08 04:20:50;;;;;;;;;;;;;;;16.72;61.27;97947.88;2082709;28;19924;-54
2022/04/08 04:21:52;;;;;;;;;;;;;;;16.75;61.24;97950.94;2087285;28;19925;-51
2022/04/08 04:22:53;;;;;;;;;;;;;;;16.78;61.32;97940.91;2085699;28;20710;-48
2022/04/08 04:23:55;;;;;;;;;;;;;;;16.80;61.26;97944.16;2084794;28;20394;-52
2022/04/08 04:24:55;;;;;;;;;;;;;;;16.84;61.15;97942.72;2082510;28;20575;-52
2022/04/08 04:25:57;;;;;;;;;;;;;;;16.86;61.16;97948.72;2089037;28;19927;-50
2022/04/08 04:26:57;;;;;;;;;;;;;;;16.90;61.18;97939.22;2083206;28;19931;-47
2022/04/08 04:27:59;;;;;;;;;;;;;;;16.91;61.16;97938.16;2086472;28;19928;-50
2022/04/08 04:29:01;;;;;;;;;;;;;;;16.93;61.30;97939.59;2081270;28;19944;-47
2022/04/08 04:30:02;;;;;;;;;;;;;;;16.97;61.08;97938.19;2085399;28;20296;-46
2022/04/08 04:31:04;;;;;;;;;;;;;;;16.98;61.12;97939.81;2083330;28;19920;-47
2022/04/08 04:32:06;;;;;;;;;;;;;;;17.01;61.16;97937.75;2089757;28;19924;-49
2022/04/08 04:33:07;;;;;;;;;;;;;;;17.04;61.02;97935.47;2088825;28;19931;-46
2022/04/08 04:34:09;;;;;;;;;;;;;;;17.07;61.13;97943.09;2084014;28;20019;-48
2022/04/08 04:35:10;;;;;;;;;;;;;;;17.10;61.13;97945.34;2078696;28;20305;-48
2022/04/08 04:36:11;;;;;;;;;;;;;;;17.12;61.06;97947.81;2088201;28;20409;-48
2022/04/08 04:37:12;;;;;;;;;;;;;;;17.13;60.92;97936.91;2085781;28;20386;-48
2022/04/08 04:38:13;;;;;;;;;;;;;;;17.14;61.06;97941.22;2085303;28;19924;-48
2022/04/08 04:39:14;;;;;;;;;;;;;;;17.16;61.06;97952.56;2082932;28;20016;-48
2022/04/08 04:40:15;;;;;;;;;;;;;;;17.17;61.12;97956.88;2082009;28;19983;-48
2022/04/08 04:41:17;;;;;;;;;;;;;;;17.20;60.78;97947.59;2087076;28;20317;-46
2022/04/08 04:42:19;;;;;;;;;;;;;;;17.19;60.95;97952.13;2083095;28;19959;-49
2022/04/08 04:43:19;;;;;;;;;;;;;;;17.23;61.03;97957.06;2085762;28;20510;-50
2022/04/08 04:44:22;;;;;;;;;;;;;;;17.26;61.05;97952.09;2086219;28;19925;-49
2022/04/08 04:45:23;;;;;;;;;;;;;;;17.29;60.78;97958.91;2082958;28;20352;-47
2022/04/08 04:46:24;;;;;;;;;;;;;;;17.30;60.84;97955.16;2085655;28;19925;-48
2022/04/08 04:47:25;;;;;;;;;;;;;;;17.31;60.94;97952.28;2084762;28;19920;-51
2022/04/08 04:48:27;;;;;;;;;;;;;;;17.32;60.85;97950.44;2085575;28;19954;-50
2022/04/08 04:49:28;;;;;;;;;;;;;;;17.32;60.78;97953.09;2081815;28;19981;-47
2022/04/08 04:50:29;;;;;;;;;;;;;;;17.35;60.69;97952.69;2085595;28;19924;-49
2022/04/08 04:51:30;;;;;;;;;;;;;;;17.37;60.86;97950.63;2086403;28;20439;-47
2022/04/08 04:52:32;;;;;;;;;;;;;;;17.39;60.78;97957.41;2084291;28;19920;-47
2022/04/08 04:53:33;;;;;;;;;;;;;;;17.41;60.67;97957.19;2088690;28;19935;-50
2022/04/08 04:54:34;;;;;;;;;;;;;;;17.44;60.89;97951.44;2084794;28;19936;-50
2022/04/08 04:55:35;;;;;;;;;;;;;;;17.44;60.73;97959.47;2084466;28;20672;-48
2022/04/08 04:56:36;;;;;;;;;;;;;;;17.44;60.80;97956.78;2083682;28;19981;-47
2022/04/08 04:57:39;;;;;;;;;;;;;;;17.47;60.79;97953.69;2083799;28;20487;-48
2022/04/08 04:58:39;;;;;;;;;;;;;;;17.48;60.61;97955.31;2084981;28;19920;-48
2022/04/08 04:59:42;;;;;;;;;;;;;;;17.49;60.76;97961.50;2087254;28;20281;-49
2022/04/08 05:00:42;;;;;;;;;;;;;;;17.50;60.54;97963.97;2085019;28;19924;-49
2022/04/08 05:01:44;;;;;;;;;;;;;;;17.54;60.70;97961.69;2083931;28;19927;-46
2022/04/08 05:02:44;;;;;;;;;;;;;;;17.56;60.66;97957.75;2084343;28;19932;-51
2022/04/08 05:03:46;;;;;;;;;;;;;;;17.57;60.54;97963.94;2084767;28;20508;-53
2022/04/08 05:04:46;;;;;;;;;;;;;;;17.56;60.54;97960.44;2084907;28;19955;-48
2022/04/08 05:05:48;;;;;;;;;;;;;;;17.55;60.89;97961.50;2084085;28;19979;-49
2022/04/08 05:06:49;;;;;;;;;;;;;;;17.56;60.71;97963.13;2083211;28;19948;-47
2022/04/08 05:07:50;;;;;;;;;;;;;;;17.58;60.71;97961.06;2081909;28;20305;-49
2022/04/08 05:08:52;;;;;;;;;;;;;;;17.60;60.65;97961.66;2084498;28;19932;-48
2022/04/08 05:09:52;;;;;;;;;;;;;;;17.61;60.62;97959.81;2088543;28;20286;-51
2022/04/08 05:10:54;;;;;;;;;;;;;;;17.61;60.58;97963.31;2085914;28;19978;-49
2022/04/08 05:11:55;;;;;;;;;;;;;;;17.62;60.70;97970.31;2088598;28;19924;-48
2022/04/08 05:12:56;;;;;;;;;;;;;;;17.62;60.74;97962.25;2084854;28;19921;-48
2022/04/08 05:13:57;;;;;;;;;;;;;;;17.63;60.69;97965.75;2086304;28;19924;-49
2022/04/08 05:15:00;;;;;;;;;;;;;;;17.63;60.61;97971.13;2087978;28;19968;-50
2022/04/08 05:16:01;;;;;;;;;;;;;;;17.65;60.67;97969.06;2085354;28;19924;-47
2022/04/08 05:17:03;;;;;;;;;;;;;;;17.65;60.70;97975.25;2078640;28;20743;-51
2022/04/08 05:18:04;;;;;;;;;;;;;;;17.64;60.79;97968.25;2081618;28;19936;-49
2022/04/08 05:19:06;;;;;;;;;;;;;;;17.64;60.55;97968.25;2082843;28;20659;-50
2022/04/08 05:20:06;;;;;;;;;;;;;;;17.64;60.72;97965.56;2084752;28;19920;-48